createdAt,value
2023-04-08T00:02:59.032Z,87.12
2023-04-08T00:08:00.853Z,86.95
2023-04-08T00:13:02.644Z,86.77
2023-04-08T00:18:04.324Z,86.90
2023-04-08T00:23:06.300Z,87.44
2023-04-08T00:28:07.980Z,87.62
2023-04-08T00:33:10.070Z,87.44
2023-04-08T00:38:13.577Z,87.82
2023-04-08T00:43:16.623Z,88.07
2023-04-08T00:48:18.281Z,88.08
2023-04-08T00:53:20.250Z,88.23
2023-04-08T00:58:21.902Z,91.08
2023-04-08T01:03:27.514Z,89.06
2023-04-08T01:08:31.375Z,88.93
2023-04-08T01:13:35.938Z,88.69
2023-04-08T01:18:38.819Z,88.69
2023-04-08T01:23:53.018Z,88.77
2023-04-08T01:28:57.853Z,90.24
2023-04-08T01:34:01.268Z,89.78
2023-04-08T01:39:03.449Z,90.36
2023-04-08T01:44:05.458Z,89.68
2023-04-08T01:49:07.487Z,91.02
2023-04-08T01:54:10.607Z,90.99
2023-04-08T01:59:14.538Z,90.10
2023-04-08T02:04:16.637Z,91.32
2023-04-08T02:09:20.244Z,91.16
2023-04-08T02:14:22.970Z,91.57
2023-04-08T02:19:36.514Z,92.98
2023-04-08T02:24:39.016Z,92.66
2023-04-08T02:29:41.490Z,91.92
2023-04-08T02:34:43.729Z,92.04
2023-04-08T02:39:45.539Z,91.94
2023-04-08T02:44:47.949Z,94.01
2023-04-08T02:49:53.232Z,92.97
2023-04-08T02:54:54.866Z,92.71
2023-04-08T02:59:57.090Z,91.52
2023-04-08T03:04:58.996Z,92.59
2023-04-08T03:10:00.816Z,91.92
2023-04-08T03:15:03.527Z,92.41
2023-04-08T03:20:06.218Z,92.20
2023-04-08T03:25:08.336Z,92.80
2023-04-08T03:30:10.357Z,92.70
2023-04-08T03:35:12.141Z,92.58
2023-04-08T03:40:13.779Z,92.85
2023-04-08T03:45:15.425Z,93.18
2023-04-08T03:50:17.106Z,93.12
2023-04-08T03:55:18.712Z,94.48
2023-04-08T04:00:20.332Z,95.18
2023-04-08T04:05:22.283Z,93.37
2023-04-08T04:10:24.196Z,95.90
2023-04-08T04:15:25.907Z,94.82
2023-04-08T04:20:29.189Z,95.10
2023-04-08T04:25:30.870Z,95.02
2023-04-08T04:30:32.536Z,96.88
2023-04-08T04:35:34.226Z,97.19
2023-04-08T04:40:36.224Z,96.43
2023-04-08T04:45:37.833Z,98.94
2023-04-08T04:50:39.473Z,99.07
2023-04-08T04:55:41.281Z,98.21
2023-04-08T05:00:42.880Z,99.28
2023-04-08T05:05:44.501Z,99.65
2023-04-08T05:10:46.423Z,100.00
2023-04-08T05:15:48.341Z,100.00
2023-04-08T05:20:49.956Z,100.00
2023-04-08T05:25:51.557Z,99.64
2023-04-08T05:30:53.458Z,97.55
2023-04-08T05:35:55.111Z,97.88
2023-04-08T05:40:56.766Z,98.61
2023-04-08T05:45:58.346Z,99.03
2023-04-08T05:51:00.269Z,98.77
2023-04-08T05:56:01.886Z,99.90
2023-04-08T06:01:03.859Z,100.00
2023-04-08T06:06:11.618Z,99.21
2023-04-08T06:11:13.258Z,100.00
2023-04-08T06:16:19.584Z,100.00
2023-04-08T06:21:22.560Z,100.00
2023-04-08T06:26:24.139Z,100.00
2023-04-08T06:31:26.060Z,98.84
2023-04-08T06:36:28.380Z,97.70
2023-04-08T06:41:30.760Z,100.00
2023-04-08T06:46:38.452Z,99.34
2023-04-08T06:51:40.433Z,98.47
2023-04-08T06:56:42.008Z,98.08
2023-04-08T07:01:43.693Z,98.23
2023-04-08T07:06:45.852Z,98.08
2023-04-08T07:11:47.476Z,96.81
2023-04-08T07:16:49.165Z,97.20
2023-04-08T07:21:51.004Z,95.40
2023-04-08T07:26:52.918Z,93.46
2023-04-08T07:31:54.504Z,92.29
2023-04-08T07:36:56.248Z,89.67
2023-04-08T07:41:57.887Z,87.65
2023-04-08T07:46:59.477Z,86.92
2023-04-08T07:52:01.256Z,87.38
2023-04-08T07:57:02.942Z,86.07
2023-04-08T08:02:04.701Z,86.29
2023-04-08T08:07:06.296Z,85.46
2023-04-08T08:12:07.905Z,83.19
2023-04-08T08:17:09.551Z,82.75
2023-04-08T08:22:12.042Z,82.03
2023-04-08T08:27:13.640Z,82.07
2023-04-08T08:32:15.246Z,80.75
2023-04-08T08:37:16.892Z,79.89
2023-04-08T08:42:23.175Z,78.31
2023-04-08T08:47:25.068Z,76.61
2023-04-08T08:52:26.675Z,76.12
2023-04-08T08:57:28.345Z,76.68
2023-04-08T09:02:32.134Z,76.44
2023-04-08T09:07:40.547Z,77.18
2023-04-08T09:12:56.248Z,76.07
2023-04-08T09:17:59.052Z,76.43
2023-04-08T09:23:01.817Z,76.98
2023-04-08T09:28:03.551Z,76.40
2023-04-08T09:33:07.394Z,76.45
2023-04-08T09:38:09.159Z,76.79
2023-04-08T09:43:12.781Z,75.16
2023-04-08T09:48:18.553Z,75.57
2023-04-08T09:53:26.651Z,74.05
2023-04-08T09:58:29.578Z,75.05
2023-04-08T10:03:37.614Z,76.07
2023-04-08T10:08:39.375Z,75.98
2023-04-08T10:13:41.426Z,75.77
2023-04-08T10:18:44.223Z,76.04
2023-04-08T10:23:58.947Z,74.52
2023-04-08T10:29:18.791Z,73.58
2023-04-08T10:34:22.722Z,73.76
2023-04-08T10:39:25.436Z,72.72
2023-04-08T10:44:27.150Z,71.82
2023-04-08T10:49:33.863Z,70.26
2023-04-08T10:54:36.730Z,71.08
2023-04-08T10:59:39.858Z,69.04
2023-04-08T11:04:42.853Z,69.77
2023-04-08T11:09:44.868Z,70.42
2023-04-08T11:14:47.800Z,71.19
2023-04-08T11:19:50.461Z,71.69
2023-04-08T11:24:52.225Z,72.52
2023-04-08T11:29:56.167Z,72.77
2023-04-08T11:35:01.217Z,73.59
2023-04-08T11:40:02.862Z,74.88
2023-04-08T11:45:12.345Z,74.37
2023-04-08T11:50:23.069Z,72.60
2023-04-08T11:55:27.045Z,75.08
2023-04-08T12:00:28.725Z,75.08
2023-04-08T12:05:30.461Z,74.31
2023-04-08T12:10:32.106Z,74.42
2023-04-08T12:15:33.714Z,75.99
2023-04-08T12:20:35.416Z,77.55
2023-04-08T12:25:37.010Z,76.42
2023-04-08T12:30:38.588Z,78.39
2023-04-08T12:35:40.285Z,77.25
2023-04-08T12:40:41.947Z,77.37
2023-04-08T12:45:43.553Z,76.70
2023-04-08T12:50:45.409Z,76.49
2023-04-08T12:55:49.116Z,77.47
2023-04-08T13:00:51.334Z,75.13
2023-04-08T13:05:52.961Z,75.86
2023-04-08T13:10:55.196Z,75.77
2023-04-08T13:15:56.795Z,74.05
2023-04-08T13:20:58.591Z,75.89
2023-04-08T13:26:00.462Z,74.24
2023-04-08T13:31:02.120Z,75.40
2023-04-08T13:36:03.972Z,76.46
2023-04-08T13:41:05.656Z,75.28
2023-04-08T13:46:08.091Z,74.39
2023-04-08T13:51:10.341Z,73.70
2023-04-08T13:56:11.935Z,73.31
2023-04-08T14:01:13.548Z,73.33
2023-04-08T14:06:15.242Z,74.09
2023-04-08T14:11:16.812Z,73.85
2023-04-08T14:16:18.540Z,74.78
2023-04-08T14:21:20.289Z,74.87
2023-04-08T14:26:22.043Z,73.90
2023-04-08T14:31:23.679Z,74.35
2023-04-08T14:36:26.209Z,73.57
2023-04-08T14:41:27.807Z,74.05
2023-04-08T14:46:29.573Z,75.33
2023-04-08T14:51:31.824Z,74.94
2023-04-08T14:56:33.531Z,73.71
2023-04-08T15:01:35.820Z,73.54
2023-04-08T15:06:39.023Z,70.92
2023-04-08T15:11:40.645Z,71.92
2023-04-08T15:16:42.311Z,71.88
2023-04-08T15:21:43.953Z,71.04
2023-04-08T15:26:45.582Z,71.64
2023-04-08T15:31:47.153Z,70.83
2023-04-08T15:36:48.748Z,71.41
2023-04-08T15:41:50.365Z,72.28
2023-04-08T15:46:52.063Z,71.25
2023-04-08T15:51:53.650Z,71.60
2023-04-08T15:56:55.238Z,71.13
2023-04-08T16:01:57.126Z,71.30
2023-04-08T16:06:58.784Z,71.91
2023-04-08T16:12:00.374Z,71.10
2023-04-08T16:17:01.986Z,71.25
2023-04-08T16:22:03.679Z,72.61
2023-04-08T16:27:05.519Z,72.27
2023-04-08T16:32:07.313Z,71.86
2023-04-08T16:37:09.072Z,72.64
2023-04-08T16:42:10.988Z,72.70
2023-04-08T16:47:12.577Z,72.73
2023-04-08T16:52:14.164Z,73.26
2023-04-08T16:57:16.574Z,73.53
2023-04-08T17:02:18.513Z,72.53
2023-04-08T17:07:20.219Z,72.35
2023-04-08T17:12:21.930Z,72.49
2023-04-08T17:17:23.561Z,73.15
2023-04-08T17:22:26.133Z,73.82
2023-04-08T17:27:27.736Z,73.58
2023-04-08T17:32:29.385Z,73.04
2023-04-08T17:37:31.015Z,74.38
2023-04-08T17:42:32.629Z,74.62
2023-04-08T17:47:34.256Z,75.02
2023-04-08T17:52:36.085Z,75.59
2023-04-08T17:57:38.948Z,74.28
2023-04-08T18:02:41.808Z,74.17
2023-04-08T18:07:43.649Z,75.35
2023-04-08T18:12:45.839Z,74.48
2023-04-08T18:17:47.720Z,74.08
2023-04-08T18:22:49.394Z,74.53
2023-04-08T18:27:50.994Z,74.82
2023-04-08T18:32:52.761Z,74.39
2023-04-08T18:37:54.452Z,74.98
2023-04-08T18:42:56.244Z,75.65
2023-04-08T18:47:57.908Z,75.14
2023-04-08T18:52:59.561Z,75.80
2023-04-08T18:58:01.143Z,75.44
2023-04-08T19:03:03.529Z,75.08
2023-04-08T19:08:05.765Z,75.10
2023-04-08T19:13:07.380Z,75.28
2023-04-08T19:18:09.820Z,76.71
2023-04-08T19:23:11.496Z,76.43
2023-04-08T19:28:14.334Z,76.33
2023-04-08T19:33:15.900Z,77.45
2023-04-08T19:38:17.490Z,76.90
2023-04-08T19:43:19.158Z,76.87
2023-04-08T19:48:21.312Z,76.63
2023-04-08T19:53:23.012Z,77.39
2023-04-08T19:58:24.597Z,77.37
2023-04-08T20:03:26.458Z,77.26
2023-04-08T20:08:28.375Z,77.67
2023-04-08T20:13:29.972Z,77.66
2023-04-08T20:18:32.763Z,77.76
2023-04-08T20:23:34.346Z,78.02
2023-04-08T20:28:36.679Z,78.17
2023-04-08T20:33:43.524Z,78.08
2023-04-08T20:38:45.346Z,78.45
2023-04-08T20:43:46.946Z,78.70
2023-04-08T20:48:48.590Z,79.24
2023-04-08T20:53:50.637Z,79.15
2023-04-08T20:58:52.483Z,79.34
2023-04-08T21:03:54.718Z,79.07
2023-04-08T21:08:56.484Z,79.12
2023-04-08T21:13:58.088Z,79.58
2023-04-08T21:19:01.827Z,80.39
2023-04-08T21:24:04.565Z,80.61
2023-04-08T21:29:06.315Z,81.05
2023-04-08T21:34:08.005Z,80.93
2023-04-08T21:39:09.644Z,81.35
2023-04-08T21:44:11.230Z,81.14
2023-04-08T21:49:13.764Z,81.87
2023-04-08T21:54:15.520Z,81.72
2023-04-08T21:59:17.179Z,82.05
2023-04-08T22:04:19.740Z,82.27
2023-04-08T22:09:21.678Z,82.48
2023-04-08T22:14:23.577Z,82.16
2023-04-08T22:19:25.363Z,82.54
2023-04-08T22:24:27.677Z,83.07
2023-04-08T22:29:29.701Z,82.92
2023-04-08T22:34:31.319Z,83.12
2023-04-08T22:39:32.925Z,82.44
2023-04-08T22:44:34.557Z,82.87
2023-04-08T22:49:36.396Z,84.42
2023-04-08T22:54:37.969Z,83.20
2023-04-08T22:59:39.743Z,82.26
2023-04-08T23:04:41.315Z,82.60
2023-04-08T23:09:42.946Z,82.75
2023-04-08T23:14:44.522Z,83.01
2023-04-08T23:19:46.165Z,82.85
2023-04-08T23:24:48.336Z,83.27
2023-04-08T23:29:49.928Z,83.09
2023-04-08T23:34:51.494Z,83.86
2023-04-08T23:39:54.466Z,84.16
2023-04-08T23:44:56.072Z,83.69
2023-04-08T23:49:57.725Z,83.62
2023-04-08T23:54:59.342Z,83.65
